Aérodrome :
LOGIN :

S'inscrire | Disclaimer

   EN    FR    IT 

 










Légende :    VFR   VFR Marginal   IFR   IFR Intensif   IFR Très Intensif
Visi : 
Plafond : 
>= 8 km
>= 3000ft
5 à 8 km
1000 à 3000 ft
1500m à 5 km
500 à 1000 ft
800 à 1500m
200 à 500 ft
< 800m
< 200 ft
Symboles :   Orages  Brouillard  Fortes neiges  Fortes précipitations  Vent > 20 kt
SIGMETs :   Divers  Orages  Givrage  Turbulence  Onde Orograph.  Cendres Volcan.






- Altitude de l'aérodrome : 614 ft
- Code IATA : CRL


EBCI - Charleroi

DERNIER METAR :
  • 220920Z 04014KT 9999 -RA FEW008 BKN011 12/10 Q1015 NOSIG

METARs EXPIRÉS :
  • 220850Z 04014KT 9999 FEW008 BKN010 12/10 Q1015 NOSIG
  • 220820Z 04015KT 9999 FEW007 BKN009 12/11 Q1015 NOSIG
  • 220750Z 04015KT 010V070 9999 -RA FEW007 BKN009 12/10 Q1015 NOSIG
  • 220720Z 05015KT 9999 FEW007 BKN009 12/10 Q1015 NOSIG
  • 220650Z 05014KT 9999 -RA FEW007 BKN009 12/10 Q1015 NOSIG

TAF TAF EBCI
Valide du 22 à 06h jusqu'au 23 à 12h UTC


220510Z 2206/2312 05009KT 9999 BKN018 FEW025CB
PROB40
TEMPO 2206/2209 BKN008
PROB30
TEMPO 2206/2218 4000 RA SHRA
PROB30
TEMPO 2302/2308 BKN007



MET'MAP, la Météo Aéronautique d'un coup d'oeil ! - Copyright ORBIFLY Décembre 2007 - Disclaimer

ORBIFLY MET'MAP TEAM :

Programmation & Développement : Alexandra Zaïnal
Sur une idée originale de : Baudouin d'Aumeries
Assistance à la programmation : Marc-Olivier Méhu
Soutien technique & logistique : Manuel Goepfert

Contact : metmap@orbifly.com




SOURCES & CREDITS :

   NOAA